Turuhan AN24 at Tomsk on Nov 10th 2017, runway excursion on backtrack

Last Update: November 10, 2017 / 15:52:00 GMT/Zulu time

Bookmark this article
Incident Facts

Date of incident
Nov 10, 2017

Classification
Incident

Flight number
UT-57

Departure
Tomsk, Russia

Aircraft Registration
RA-47820

Aircraft Type
Antonov An-24

ICAO Type Designator
AN24

Airport ICAO Code
UNTT

A Turuhanavia Antonov AN-24 on behalf of UTAir, registration RA-47820 performing flight UT-57 from Tomsk to Strezhevoy (Russia), was backtracking runway 03 for departure at 09:23L (02:23Z) when the crew attempted to turn around and line up for takeoff, the right hand main gear however went off the paved surface of the runway disabling the aircraft on the runway.

Passengers reported the aircraft stopped while attempting to turn around, the crew applied more power and the aircraft began to skid off the runway.

Tomsk's Transport Prosecution Office reported the AN-24 performing flight Tomsk-Strezhevoy went off the paved surface with its right hand gear while attempting to turn around by 180 degrees. There were no injuries and no damage. The aircraft departed 4.5 hours later.

Metars:
UNTT 100300Z 28004MPS 9999 -SHSN FEW009 BKN020CB M02/M03 Q1003 R21/590232 NOSIG RMK QFE737=
UNTT 100230Z 28003MPS 9999 -SHSN SCT009 BKN021CB M02/M03 Q1003 R21/590232 NOSIG RMK QFE737=
UNTT 100200Z 27003MPS 2500 -SHSN SCT008 BKN027CB M02/M02 Q1002 R21/590232 NOSIG RMK QFE737=
UNTT 100130Z 28003MPS 1900 1400S SHSN SCT007 BKN026CB M02/M02 Q1002 R21/590232 NOSIG RMK QFE737=
UNTT 100100Z 30002MPS 1800 R21/P2000U SHSN SCT005 BKN029CB M02/M02 Q1002 R21/590232 NOSIG RMK QFE736=
UNTT 100030Z 30003MPS 2000 1400S R21/P2000N SHSN SCT006 BKN030CB M02/M02 Q1001 R21/590232 NOSIG RMK QFE736=
UNTT 100000Z 27002MPS 2300 -SHSN SCT005 BKN022CB M01/M01 Q1001 R21/590232 NOSIG RMK QFE736=
UNTT 092330Z 29002MPS 4000 -SHSN SCT005 BKN042CB M01/M01 Q1001 R21/590232 NOSIG RMK QFE736=
UNTT 092300Z 28003MPS 2700 -SHSN SCT004CB M01/M01 Q1001 R21/590232 NOSIG RMK QFE736=
Aircraft Registration Data
Registration mark
RA-47820
Country of Registration
Russia
Date of Registration
IAk g djcfAheedq Subscribe to unlock
Certification Basis
Manufacturer
Aircraft Model / Type
An-24RV
ICAO Aircraft Type
AN24
Serial Number
Engine Count
Incident Facts

Date of incident
Nov 10, 2017

Classification
Incident

Flight number
UT-57

Departure
Tomsk, Russia

Aircraft Registration
RA-47820

Aircraft Type
Antonov An-24

ICAO Type Designator
AN24

Airport ICAO Code
UNTT

This article is published under license from Avherald.com. © of text by Avherald.com.
Article source

You can read 2 more free articles without a subscription.

Subscribe now and continue reading without any limits!

Are you a subscriber? Login
Subscribe

Read unlimited articles and receive our daily update briefing. Gain better insights into what is happening in commercial aviation safety.

Send tip

Support AeroInside by sending a small tip amount.

Newest articles

Subscribe today

Are you researching aviation incidents? Get access to AeroInside Insights, unlimited read access and receive the daily newsletter.

Pick your plan and subscribe

Partner

Blockaviation logo

A new way to document and demonstrate airworthiness compliance and aircraft value. Find out more.

ELITE Logo

ELITE Simulation Solutions is a leading global provider of Flight Simulation Training Devices, IFR training software as well as flight controls and related services. Find out more.

Blue Altitude Logo

Your regulation partner, specialists in aviation safety and compliance; providing training, auditing, and consultancy services. Find out more.

AeroInside Blog
Popular aircraft
Airbus A320
Boeing 737-800
Boeing 737-800 MAX
Popular airlines
American Airlines
United
Delta
Air Canada
Lufthansa
British Airways